Time;durP1;ratioP1;P1;durP2;ratioP2;P2;SDS_P1;SDS_P2;PMS_P1;PMS_P2;Temp;Humidity;BMP_temperature;BMP_pressure;BME280_temperature;BME280_humidity;BME280_pressure;Samples;Min_cycle;Max_cycle;Signal;HPM_P1;HPM_P2
2022/08/01 00:00:46;;;;;;;2.43;2.30;;;22.10;89.30;;;24.96;61.93;101252.47;5074660;28;20296;-63
2022/08/01 00:03:15;;;;;;;2.50;2.30;;;22.10;89.30;;;25.00;62.28;101261.69;5081448;28;20223;-63
2022/08/01 00:05:44;;;;;;;2.40;2.20;;;22.10;89.30;;;24.99;62.26;101265.44;5094827;28;20223;-63
2022/08/01 00:08:11;;;;;;;2.50;2.30;;;22.10;89.10;;;24.99;62.40;101265.44;5095009;28;20245;-63
2022/08/01 00:10:39;;;;;;;2.30;2.20;;;22.20;89.20;;;24.99;61.69;101256.53;5094617;28;20192;-63
2022/08/01 00:13:06;;;;;;;2.33;2.20;;;22.20;89.10;;;24.98;62.32;101265.69;5095224;28;20219;-63
2022/08/01 00:15:35;;;;;;;3.33;2.50;;;22.10;89.20;;;24.99;62.28;101265.44;5094859;28;20180;-63
2022/08/01 00:18:03;;;;;;;2.23;2.13;;;22.20;89.20;;;25.00;62.50;101272.47;5094933;28;20603;-63
2022/08/01 00:20:31;;;;;;;2.87;2.67;;;22.20;89.10;;;25.00;61.68;101272.47;5095516;28;20203;-63
2022/08/01 00:22:59;;;;;;;2.43;2.30;;;22.20;89.10;;;25.01;61.87;101265.97;5094639;28;20226;-63
2022/08/01 00:25:29;;;;;;;3.00;2.80;;;22.20;89.10;;;25.03;61.84;101271.91;5094578;28;20192;-62
2022/08/01 00:28:00;;;;;;;2.77;2.57;;;22.20;88.90;;;25.03;62.15;101266.53;5094572;28;20194;-63
2022/08/01 00:30:30;;;;;;;3.30;3.10;;;22.20;88.80;;;25.03;61.73;101265.75;5094502;28;20193;-63
2022/08/01 00:32:58;;;;;;;3.53;3.23;;;22.20;88.70;;;25.03;62.04;101269.22;5094449;28;20215;-65
2022/08/01 00:35:25;;;;;;;3.47;3.23;;;22.20;88.60;;;25.05;61.57;101272.50;5093880;28;20192;-62
2022/08/01 00:37:54;;;;;;;3.97;3.67;;;22.20;88.60;;;25.07;61.73;101270.34;5095873;28;20192;-63
2022/08/01 00:40:22;;;;;;;4.57;4.17;;;22.20;88.30;;;25.05;61.12;101275.19;5094229;28;20218;-65
2022/08/01 00:42:50;;;;;;;4.60;4.20;;;22.20;88.00;;;25.04;61.50;101270.88;5094406;28;20294;-63
2022/08/01 00:45:18;;;;;;;5.37;4.87;;;22.20;88.10;;;25.05;61.32;101267.13;5094424;28;20188;-63
2022/08/01 00:47:45;;;;;;;5.97;5.00;;;22.20;87.90;;;25.04;61.56;101278.94;5094320;28;20588;-63
2022/08/01 00:50:13;;;;;;;5.70;5.10;;;22.20;87.70;;;25.02;61.02;101270.31;5094023;28;20196;-63
2022/08/01 00:52:43;;;;;;;5.67;5.17;;;22.20;87.50;;;25.01;61.56;101265.19;5094191;28;20223;-63
2022/08/01 00:55:20;;;;;;;4.60;4.03;;;22.20;87.50;;;24.99;61.00;101275.38;5095323;28;20239;-63
2022/08/01 00:57:48;;;;;;;6.07;5.47;;;22.10;87.30;;;24.99;61.29;101273.50;5094046;28;20551;-62
2022/08/01 01:00:33;;;;;;;5.97;5.53;;;22.20;87.30;;;24.95;61.14;101280.50;5092872;28;20195;-63
2022/08/01 01:03:22;;;;;;;6.50;5.90;;;22.20;87.20;;;24.94;60.63;101278.84;5093943;28;20657;-63
2022/08/01 01:06:24;;;;;;;7.57;6.77;;;22.20;87.90;;;24.90;60.57;101283.13;5094025;28;20208;-63
2022/08/01 01:09:14;;;;;;;7.77;6.17;;;22.20;87.20;;;24.86;61.36;101272.03;5093968;28;20189;-63
2022/08/01 01:11:51;;;;;;;5.40;5.00;;;22.10;87.90;;;24.87;61.14;101275.56;5094754;28;20545;-63
2022/08/01 01:14:30;;;;;;;5.27;4.80;;;22.10;87.30;;;24.86;60.83;101287.41;5093860;28;20196;-63
2022/08/01 01:17:02;;;;;;;4.70;4.30;;;22.10;87.00;;;24.86;60.58;101282.81;5093771;28;20189;-63
2022/08/01 01:19:35;;;;;;;4.30;3.90;;;22.10;86.80;;;24.85;60.59;101291.16;5094025;28;20649;-63
2022/08/01 01:22:27;;;;;;;4.40;4.10;;;22.10;86.70;;;24.80;60.96;101288.41;5093408;28;20212;-63
2022/08/01 01:25:33;;;;;;;5.20;4.70;;;22.10;86.70;;;24.74;60.46;101294.81;5093945;28;20563;-63
2022/08/01 01:28:12;;;;;;;4.57;4.17;;;22.10;86.50;;;24.74;60.91;101295.63;5094697;28;20227;-63
2022/08/01 01:30:46;;;;;;;4.70;4.30;;;22.00;86.20;;;24.74;60.72;101289.41;5093389;28;20649;-61
2022/08/01 01:33:16;;;;;;;5.53;4.40;;;22.00;86.30;;;24.76;60.77;101298.06;5093728;28;20207;-63
2022/08/01 01:35:51;;;;;;;4.60;4.20;;;22.00;86.40;;;24.73;60.39;101293.16;5093849;28;20204;-62
2022/08/01 01:38:23;;;;;;;4.30;3.90;;;22.00;86.50;;;24.74;60.54;101294.81;5093533;28;20195;-62
2022/08/01 01:40:54;;;;;;;5.87;5.27;;;22.00;86.50;;;24.75;60.67;101291.03;5093256;28;20203;-64
2022/08/01 01:43:24;;;;;;;5.50;4.80;;;22.00;86.70;;;24.75;61.02;101296.41;5094654;28;20219;-64
2022/08/01 01:46:04;;;;;;;6.37;5.77;;;21.90;86.60;;;24.73;60.36;101298.56;5093628;28;20583;-63
2022/08/01 01:48:35;;;;;;;6.20;5.33;;;22.00;86.70;;;24.72;60.92;101289.66;5097091;28;20645;-64
2022/08/01 01:51:03;;;;;;;5.87;5.37;;;21.90;86.70;;;24.71;60.50;101296.13;5097609;28;20188;-63
2022/08/01 01:53:34;;;;;;;6.40;5.80;;;21.90;86.70;;;24.71;60.88;101300.69;5097497;28;20691;-62
2022/08/01 01:56:03;;;;;;;6.37;5.77;;;21.90;87.60;;;24.69;60.48;101297.44;5097788;28;20656;-63
2022/08/01 01:58:34;;;;;;;8.03;7.23;;;21.90;86.80;;;24.68;60.97;101301.19;5097868;28;20192;-62
2022/08/01 02:01:03;;;;;;;7.37;6.17;;;21.90;86.80;;;24.67;61.14;101299.59;5098430;28;20533;-62
2022/08/01 02:03:43;;;;;;;7.97;6.77;;;21.90;87.00;;;24.67;60.85;101299.59;5097928;28;20661;-62
2022/08/01 02:06:14;;;;;;;6.83;6.23;;;21.90;87.00;;;24.66;61.32;101303.34;5097340;28;20204;-63
2022/08/01 02:08:44;;;;;;;7.27;6.57;;;21.90;87.20;;;24.63;60.95;101303.81;5097445;28;20215;-63
2022/08/01 02:11:17;;;;;;;7.13;5.53;;;21.80;87.20;;;24.64;61.27;101302.78;5096899;28;20181;-63
2022/08/01 02:13:52;;;;;;;7.90;7.10;;;21.90;87.70;;;24.67;60.94;101304.97;5097631;28;20200;-62
2022/08/01 02:16:25;;;;;;;6.93;6.33;;;21.90;87.80;;;24.67;61.25;101310.34;5098567;28;20214;-62
2022/08/01 02:18:52;;;;;;;6.07;5.47;;;21.90;87.90;;;24.68;61.62;101307.41;5097505;28;20188;-63
2022/08/01 02:21:28;;;;;;;5.77;5.27;;;21.90;88.00;;;24.66;61.34;101314.09;5096935;28;20208;-63
2022/08/01 02:24:14;;;;;;;5.30;4.80;;;21.90;88.70;;;24.60;61.69;101312.44;5097087;28;20203;-63
2022/08/01 02:26:49;;;;;;;3.97;3.57;;;21.90;87.90;;;24.62;61.80;101318.38;5096855;28;20216;-62
2022/08/01 02:29:32;;;;;;;3.90;3.50;;;21.90;88.10;;;24.60;61.42;101313.25;5096751;28;20188;-63
2022/08/01 02:32:04;;;;;;;3.50;3.20;;;21.90;88.10;;;24.58;61.74;101312.66;5096196;28;20212;-63
2022/08/01 02:34:35;;;;;;;3.43;3.13;;;21.80;87.70;;;24.58;61.20;101309.19;5098102;28;20188;-62
2022/08/01 02:37:06;;;;;;;3.57;3.27;;;21.80;87.60;;;24.56;61.42;101313.97;5096969;28;20203;-63
2022/08/01 02:39:38;;;;;;;3.77;3.47;;;21.80;87.60;;;24.53;60.99;101309.91;5096828;28;20188;-63
2022/08/01 02:42:08;;;;;;;3.20;2.90;;;21.80;87.70;;;24.52;61.12;101312.88;5096616;28;20212;-63
2022/08/01 02:44:42;;;;;;;3.87;3.37;;;21.70;87.60;;;24.50;61.75;101313.13;5096892;28;20185;-61
2022/08/01 02:47:10;;;;;;;3.40;3.10;;;21.70;87.70;;;24.50;61.40;101315.00;5096874;28;20205;-63
2022/08/01 02:49:43;;;;;;;4.40;4.10;;;21.70;87.70;;;24.49;61.46;101313.38;5097722;28;20237;-63
2022/08/01 02:52:16;;;;;;;4.27;3.87;;;21.70;87.60;;;24.49;61.41;101310.69;5095972;28;20250;-63
2022/08/01 02:54:48;;;;;;;6.33;3.73;;;21.70;87.80;;;24.49;61.10;101313.38;5096450;28;20267;-63
2022/08/01 02:57:18;;;;;;;3.67;3.47;;;21.70;87.80;;;24.51;61.49;101316.66;5096107;28;20196;-63
2022/08/01 02:59:50;;;;;;;4.93;4.43;;;21.70;88.00;;;24.52;61.18;101313.69;5094960;28;20263;-63
2022/08/01 03:02:22;;;;;;;5.27;4.77;;;21.70;87.70;;;24.51;61.31;101320.13;5095462;28;20618;-63
2022/08/01 03:04:52;;;;;;;5.27;4.87;;;21.70;87.60;;;24.49;61.19;101318.75;5096076;28;20200;-63
2022/08/01 03:07:24;;;;;;;5.33;4.90;;;21.70;87.60;;;24.50;61.08;101323.09;5096951;28;20204;-64
2022/08/01 03:10:03;;;;;;;5.07;4.57;;;21.70;87.70;;;24.48;61.13;101327.91;5096117;28;20188;-64
2022/08/01 03:12:34;;;;;;;4.07;3.67;;;21.70;87.70;;;24.45;61.51;101333.78;5095961;28;20685;-64
2022/08/01 03:15:04;;;;;;;4.73;4.33;;;21.70;87.60;;;24.43;61.35;101338.63;5096288;28;20188;-64
2022/08/01 03:17:36;;;;;;;3.67;3.37;;;21.70;87.30;;;24.41;61.46;101346.94;5095943;28;20657;-64
2022/08/01 03:20:08;;;;;;;3.93;3.63;;;21.60;87.10;;;24.41;61.22;101343.44;5096108;28;20202;-62
2022/08/01 03:22:38;;;;;;;4.00;3.70;;;21.60;87.10;;;24.40;61.15;101341.81;5095293;28;20208;-64
2022/08/01 03:25:08;;;;;;;4.13;3.83;;;21.60;87.10;;;24.42;61.22;101345.88;5097027;28;20192;-65
2022/08/01 03:27:37;;;;;;;5.13;4.63;;;21.60;87.00;;;24.40;60.99;101358.78;5095631;28;20224;-63
2022/08/01 03:30:07;;;;;;;5.23;4.73;;;21.60;87.10;;;24.40;61.24;101352.56;5095637;28;20192;-64
2022/08/01 03:32:36;;;;;;;4.70;4.30;;;21.60;86.90;;;24.37;60.87;101353.88;5095180;28;20223;-64
2022/08/01 03:35:04;;;;;;;4.80;4.40;;;21.60;86.70;;;24.36;60.88;101360.34;5095431;28;20185;-64
2022/08/01 03:37:40;;;;;;;4.93;4.30;;;21.60;86.70;;;24.34;60.63;101364.34;5095460;28;20568;-63
2022/08/01 03:40:37;;;;;;;4.67;4.27;;;21.60;86.50;;;24.29;60.32;101356.22;5096388;28;20184;-64
2022/08/01 03:43:09;;;;;;;3.57;3.27;;;21.50;86.10;;;24.31;60.29;101362.16;5095761;28;20230;-64
2022/08/01 03:45:41;;;;;;;5.63;3.67;;;21.50;86.00;;;24.33;60.47;101352.75;5095456;28;20188;-63
2022/08/01 03:48:16;;;;;;;3.13;2.80;;;21.50;85.90;;;24.31;60.40;101359.47;5095296;28;20209;-63
2022/08/01 03:50:52;;;;;;;3.43;2.90;;;21.50;85.40;;;24.31;59.82;101359.47;5094788;28;20196;-64
2022/08/01 03:53:28;;;;;;;4.10;3.33;;;21.50;85.00;;;24.31;59.81;101359.47;5095236;28;20208;-64
2022/08/01 03:55:59;;;;;;;3.20;2.90;;;21.50;84.90;;;24.32;60.26;101361.09;5095408;28;20192;-63
2022/08/01 03:58:28;;;;;;;3.03;2.80;;;21.50;84.90;;;24.33;59.95;101363.53;5113889;28;20183;-63
2022/08/01 04:00:57;;;;;;;3.07;2.77;;;21.50;84.80;;;24.33;59.49;101368.09;5115216;28;20196;-63
2022/08/01 04:03:27;;;;;;;3.40;3.10;;;21.50;84.40;;;24.34;59.17;101365.16;5115751;28;20180;-63
2022/08/01 04:05:54;;;;;;;2.70;2.50;;;21.50;84.50;;;24.32;59.48;101366.47;5115850;28;20187;-63
2022/08/01 04:08:22;;;;;;;3.43;3.13;;;21.50;84.30;;;24.31;59.64;101370.22;5115182;28;20589;-63
2022/08/01 04:10:56;;;;;;;3.97;2.97;;;21.50;85.20;;;24.33;59.49;101368.09;5114418;28;20196;-64
2022/08/01 04:13:25;;;;;;;4.13;3.40;;;21.50;84.30;;;24.36;59.53;101378.38;5113413;28;20181;-63
2022/08/01 04:16:04;;;;;;;5.73;3.70;;;21.50;84.60;;;24.37;59.53;101374.59;5114962;28;20199;-63
2022/08/01 04:18:33;;;;;;;5.17;3.73;;;21.50;84.50;;;24.40;59.07;101376.78;5114799;27;20187;-63
2022/08/01 04:21:00;;;;;;;4.83;3.83;;;21.60;84.70;;;24.41;59.51;101386.50;5114615;28;20188;-63
2022/08/01 04:23:31;;;;;;;4.90;2.90;;;21.60;84.90;;;24.40;59.46;101384.88;5114985;28;20188;-63
2022/08/01 04:26:03;;;;;;;2.70;2.50;;;21.60;84.20;;;24.38;59.14;101390.50;5115372;28;20534;-63
2022/08/01 04:28:35;;;;;;;4.87;2.67;;;21.60;84.10;;;24.33;59.02;101386.94;5118605;28;20239;-63
2022/08/01 04:31:11;;;;;;;3.80;3.50;;;21.50;84.20;;;24.29;59.46;101391.19;5112929;28;20192;-63
2022/08/01 04:33:45;;;;;;;3.17;2.73;;;21.50;84.50;;;24.25;59.33;101398.16;5115040;28;20188;-63
2022/08/01 04:36:17;;;;;;;6.57;2.30;;;21.50;84.80;;;24.23;59.69;101401.88;5114591;28;20592;-63
2022/08/01 04:38:50;;;;;;;2.13;1.97;;;21.50;84.80;;;24.20;59.88;101399.69;5114357;28;20676;-63
2022/08/01 04:41:19;;;;;;;1.80;1.70;;;21.50;85.10;;;24.19;60.03;101406.16;5114333;28;20212;-63
2022/08/01 04:43:47;;;;;;;1.70;1.60;;;21.40;85.00;;;24.18;59.96;101406.38;5114405;28;20210;-63
2022/08/01 04:46:17;;;;;;;1.57;1.40;;;21.40;85.00;;;24.15;59.97;101410.38;5113296;28;20196;-63
2022/08/01 04:48:47;;;;;;;2.20;1.43;;;21.40;85.20;;;24.13;59.89;101412.50;5112452;28;20215;-63
2022/08/01 04:51:17;;;;;;;1.47;1.37;;;21.30;85.10;;;24.12;59.94;101410.06;5114104;28;20180;-63
2022/08/01 04:53:48;;;;;;;1.23;1.10;;;21.30;85.10;;;24.09;59.95;101415.94;5114388;28;20183;-63
2022/08/01 04:56:15;;;;;;;1.70;1.23;;;21.30;85.80;;;24.07;59.85;101418.88;5114258;28;20184;-63
2022/08/01 04:58:44;;;;;;;3.33;1.53;;;21.30;85.10;;;24.07;60.05;101424.25;5113975;28;20551;-63
2022/08/01 05:01:11;;;;;;;1.30;1.20;;;21.20;85.30;;;24.07;59.84;101413.50;5114194;28;20546;-63
2022/08/01 05:03:39;;;;;;;2.40;1.47;;;21.20;85.20;;;24.10;59.64;101422.97;5112345;28;20192;-63
2022/08/01 05:06:08;;;;;;;3.00;1.23;;;21.30;85.30;;;24.12;59.89;101424.34;5113592;28;20191;-63
2022/08/01 05:08:35;;;;;;;2.43;1.43;;;21.30;85.20;;;24.14;59.45;101432.16;5113601;28;20208;-63
2022/08/01 05:11:03;;;;;;;1.67;1.07;;;21.30;84.80;;;24.13;59.54;101434.03;5113515;28;20332;-63
2022/08/01 05:13:31;;;;;;;4.07;1.40;;;21.30;84.50;;;24.13;59.32;101425.94;5114102;28;20200;-63
2022/08/01 05:15:58;;;;;;;2.17;1.63;;;21.30;84.70;;;24.17;59.56;101424.41;5113949;28;20232;-64
2022/08/01 05:18:29;;;;;;;3.13;1.60;;;21.30;84.90;;;24.21;59.39;101430.94;5113859;28;20198;-64
2022/08/01 05:20:57;;;;;;;2.27;1.30;;;21.40;84.50;;;24.23;59.48;101434.19;5111731;28;20648;-63
2022/08/01 05:23:25;;;;;;;4.10;1.97;;;21.40;84.30;;;24.23;59.09;101434.19;5113536;28;20555;-63
2022/08/01 05:26:10;;;;;;;4.00;1.30;;;21.40;84.10;;;24.22;59.16;101443.31;5113998;28;20256;-63
2022/08/01 05:28:41;;;;;;;2.93;1.50;;;21.40;84.00;;;24.23;58.84;101450.31;5113787;28;20270;-63
2022/08/01 05:31:08;;;;;;;1.70;1.40;;;21.40;84.10;;;24.23;59.38;101449.50;5113020;28;20286;-63
2022/08/01 05:33:36;;;;;;;3.37;2.03;;;21.40;83.90;;;24.21;58.84;101455.16;5113500;28;20195;-64
2022/08/01 05:36:04;;;;;;;1.40;1.30;;;21.40;83.50;;;24.20;58.87;101458.06;5113500;28;20191;-64
2022/08/01 05:38:34;;;;;;;2.40;1.40;;;21.40;83.70;;;24.17;58.96;101466.66;5111562;28;20184;-63
2022/08/01 05:41:01;;;;;;;1.67;1.50;;;21.30;83.70;;;24.16;58.71;101470.38;5113114;28;20183;-64
2022/08/01 05:43:29;;;;;;;3.87;1.57;;;21.40;83.90;;;24.12;59.07;101470.09;5113755;28;20187;-64
2022/08/01 05:45:56;;;;;;;3.87;1.67;;;21.30;83.80;;;24.10;59.00;101468.69;5113049;28;20240;-64
2022/08/01 05:48:24;;;;;;;3.80;1.70;;;21.30;84.40;;;24.05;59.14;101482.84;5113331;28;20211;-63
2022/08/01 05:50:51;;;;;;;4.50;1.63;;;21.20;84.10;;;24.01;58.79;101479.00;5113012;28;20187;-64
2022/08/01 05:53:25;;;;;;;3.07;2.00;;;21.20;83.60;;;24.00;58.97;101477.38;5111882;28;20184;-63
2022/08/01 05:55:53;;;;;;;4.70;2.33;;;21.20;83.90;;;24.04;59.55;101483.91;5073064;28;20320;-63
2022/08/01 05:58:21;;;;;;;4.37;2.20;;;21.20;84.20;;;24.07;58.62;101480.75;5072601;28;20193;-63
2022/08/01 06:00:49;;;;;;;3.37;1.83;;;21.20;83.80;;;24.07;58.71;101488.00;5072422;28;20193;-63
2022/08/01 06:03:16;;;;;;;4.37;2.20;;;21.20;83.70;;;24.05;58.72;101485.53;5072620;28;20204;-63
2022/08/01 06:05:43;;;;;;;3.80;1.90;;;21.20;83.70;;;24.06;58.87;101492.56;5072728;28;20621;-62
2022/08/01 06:08:11;;;;;;;3.13;2.20;;;21.20;83.60;;;24.10;58.50;101491.00;5072475;28;20205;-63
2022/08/01 06:10:38;;;;;;;5.80;2.67;;;21.20;84.30;;;24.13;58.57;101498.59;5081539;28;20291;-63
2022/08/01 06:13:07;;;;;;;4.13;2.10;;;21.20;84.00;;;24.14;58.29;101500.25;5092432;28;20514;-64
2022/08/01 06:15:34;;;;;;;6.33;2.93;;;21.20;83.20;;;24.15;58.14;101512.63;5093014;28;20548;-63
2022/08/01 06:18:03;;;;;;;4.47;2.60;;;21.20;83.00;;;24.14;57.94;101504.81;5092643;28;20557;-63
2022/08/01 06:20:31;;;;;;;6.03;2.83;;;21.20;83.00;;;24.13;58.12;101506.69;5092251;28;20665;-64
2022/08/01 06:22:58;;;;;;;3.97;2.00;;;21.20;82.70;;;24.13;58.04;101506.69;5092994;28;20213;-64
2022/08/01 06:25:27;;;;;;;4.37;2.50;;;21.20;82.50;;;24.18;57.88;101516.69;5093425;28;20198;-66
2022/08/01 06:27:54;;;;;;;9.93;2.93;;;21.30;82.50;;;24.21;57.46;101511.66;5093295;28;20287;-63
2022/08/01 06:30:23;;;;;;;8.27;3.33;;;21.30;82.80;;;24.23;57.33;101525.69;5092362;28;20211;-64
2022/08/01 06:32:51;;;;;;;7.27;3.27;;;21.30;81.40;;;24.23;56.82;101522.16;5093370;28;20223;-62
2022/08/01 06:35:25;;;;;;;6.53;2.90;;;21.30;80.60;;;24.21;56.31;101535.88;5096671;28;20653;-64
2022/08/01 06:37:52;;;;;;;6.87;3.33;;;21.30;79.50;;;24.21;55.92;101538.56;5097201;28;20184;-62
2022/08/01 06:40:23;;;;;;;11.27;4.13;;;21.30;79.80;;;24.24;55.66;101537.25;5096988;28;20193;-65
2022/08/01 06:42:50;;;;;;;6.83;5.00;;;21.20;78.50;;;24.18;55.34;101533.66;5096550;28;20212;-63
2022/08/01 06:45:18;;;;;;;10.17;4.93;;;21.20;78.10;;;24.15;54.77;101534.16;5097269;28;20192;-64
2022/08/01 06:47:47;;;;;;;12.13;4.63;;;21.20;78.00;;;24.13;55.31;101538.97;5096433;28;20208;-64
2022/08/01 06:50:17;;;;;;;9.70;4.73;;;21.20;78.30;;;24.12;54.95;101541.91;5095084;28;20623;-63
2022/08/01 06:52:45;;;;;;;12.67;4.23;;;21.20;78.00;;;24.11;55.48;101543.78;5095833;28;20223;-63
2022/08/01 06:55:12;;;;;;;8.63;4.20;;;21.20;78.40;;;24.09;55.22;101540.53;5096610;28;20260;-64
2022/08/01 06:57:47;;;;;;;13.37;5.90;;;21.20;78.10;;;24.06;54.92;101546.38;5096207;28;20645;-64
2022/08/01 07:00:18;;;;;;;5.50;3.10;;;21.20;77.80;;;24.05;55.37;101544.72;5096839;28;20188;-63
2022/08/01 07:02:47;;;;;;;9.40;3.47;;;21.20;77.60;;;24.05;55.04;101550.13;5094452;28;20587;-64
2022/08/01 07:05:14;;;;;;;12.97;3.70;;;21.20;77.60;;;24.06;54.35;101541.00;5096100;28;20184;-63
2022/08/01 07:07:42;;;;;;;10.37;4.23;;;21.10;77.30;;;24.09;54.82;101551.28;5095941;28;20197;-64
2022/08/01 07:10:10;;;;;;;8.83;4.00;;;21.20;77.60;;;24.14;54.92;101545.16;5095846;28;20223;-64
2022/08/01 07:12:38;;;;;;;11.40;4.63;;;21.20;77.30;;;24.16;54.49;101541.19;5095164;28;20208;-63
2022/08/01 07:15:08;;;;;;;11.03;4.67;;;21.20;76.90;;;24.19;54.12;101542.56;5095881;28;20193;-63
2022/08/01 07:17:38;;;;;;;9.53;4.10;;;21.20;76.90;;;24.20;54.14;101539.63;5101597;28;20232;-65
2022/08/01 07:20:10;;;;;;;6.17;3.63;;;21.20;76.30;;;24.22;53.40;101536.69;5116009;28;20192;-64
2022/08/01 07:22:40;;;;;;;7.43;3.30;;;21.20;75.80;;;24.23;53.24;101539.13;5115996;28;20252;-63
2022/08/01 07:25:09;;;;;;;10.87;3.60;;;21.20;75.30;;;24.26;53.22;101545.09;5115873;28;20188;-63
2022/08/01 07:27:37;;;;;;;10.50;3.80;;;21.30;75.10;;;24.26;53.03;101539.69;5115509;28;20271;-64
2022/08/01 07:30:06;;;;;;;13.33;3.87;;;21.30;75.20;;;24.29;52.88;101548.13;5116352;28;20609;-64
2022/08/01 07:32:34;;;;;;;10.33;3.57;;;21.30;75.10;;;24.27;52.80;101552.09;5116630;28;20566;-64
2022/08/01 07:35:02;;;;;;;9.10;3.90;;;21.30;74.80;;;24.27;52.65;101557.50;5114303;28;20270;-63
2022/08/01 07:37:31;;;;;;;7.13;4.07;;;21.30;75.00;;;24.29;53.36;101560.75;5115437;28;20192;-63
2022/08/01 07:40:16;;;;;;;11.20;4.03;;;21.30;75.10;;;24.30;52.92;101568.56;5114933;28;20267;-63
2022/08/01 07:42:44;;;;;;;7.40;3.70;;;21.40;75.10;;;24.33;52.56;101567.25;5113868;28;20641;-64
2022/08/01 07:45:14;;;;;;;7.93;3.27;;;21.40;74.20;;;24.32;52.33;101576.41;5115318;28;20641;-63
2022/08/01 07:47:42;;;;;;;8.03;3.77;;;21.40;74.30;;;24.33;52.48;101583.41;5115450;28;20192;-64
2022/08/01 07:50:10;;;;;;;12.10;3.63;;;21.40;75.40;;;24.40;52.75;101584.06;5113785;28;20203;-65
2022/08/01 07:52:39;;;;;;;7.47;3.67;;;21.40;74.10;;;24.44;51.51;101586.03;5115081;27;20211;-63
2022/08/01 07:55:08;;;;;;;9.37;3.50;;;21.50;73.00;;;24.49;50.48;101593.34;5115266;28;20196;-64
2022/08/01 07:57:36;;;;;;;9.60;3.43;;;21.40;71.30;;;24.51;50.11;101593.97;5113734;28;20232;-63
2022/08/01 08:00:07;;;;;;;7.40;3.87;;;21.50;71.40;;;24.54;50.13;101590.75;5115226;28;20194;-62
2022/08/01 08:02:34;;;;;;;8.43;3.07;;;21.50;71.10;;;24.65;50.30;101587.16;5119768;28;20212;-64
2022/08/01 08:05:03;;;;;;;9.83;3.97;;;21.50;71.90;;;24.79;50.20;101593.88;5128951;28;20192;-65
2022/08/01 08:07:31;;;;;;;12.93;5.10;;;21.60;71.90;;;24.92;50.27;101598.91;5115206;28;20181;-64
2022/08/01 08:10:01;;;;;;;12.77;4.97;;;21.70;71.50;;;25.01;49.31;101597.41;5107271;28;20680;-64
2022/08/01 08:12:28;;;;;;;8.23;3.50;;;21.80;71.10;;;25.04;49.14;101602.31;5094796;28;20209;-62
2022/08/01 08:14:58;;;;;;;10.30;3.83;;;21.80;70.80;;;25.08;49.92;101598.03;5094793;28;20231;-64
2022/08/01 08:17:25;;;;;;;9.63;4.70;;;21.90;70.80;;;25.69;49.23;101609.59;5094139;28;20196;-65
2022/08/01 08:19:58;;;;;;;6.50;4.07;;;22.10;71.90;;;26.86;46.29;101603.13;5096640;28;20195;-63
2022/08/01 08:22:26;;;;;;;8.77;4.43;;;22.40;69.50;;;28.13;44.13;101599.84;5094318;28;20225;-63
2022/08/01 08:24:53;;;;;;;7.37;3.90;;;23.00;68.90;;;29.45;41.91;101603.16;5112686;28;20202;-65
2022/08/01 08:27:28;;;;;;;5.73;3.30;;;23.70;68.00;;;30.57;40.01;101606.75;5114747;28;20538;-64
2022/08/01 08:29:55;;;;;;;10.30;4.00;;;24.60;65.10;;;30.92;38.59;101611.03;5113180;28;20222;-64
2022/08/01 08:32:23;;;;;;;8.43;3.37;;;25.30;61.90;;;30.72;37.62;101610.13;5114576;28;20219;-65
2022/08/01 08:34:50;;;;;;;7.47;3.23;;;25.80;59.70;;;30.27;37.46;101613.22;5114779;28;20188;-68
2022/08/01 08:37:18;;;;;;;12.63;3.60;;;25.90;56.60;;;29.67;37.86;101619.06;5114553;28;20191;-63
2022/08/01 08:39:47;;;;;;;12.23;4.13;;;25.80;55.70;;;29.07;38.81;101625.50;5112598;28;20267;-63
2022/08/01 08:42:14;;;;;;;10.40;3.57;;;25.60;56.00;;;28.61;39.47;101630.19;5114233;28;20223;-63
2022/08/01 08:44:43;;;;;;;10.07;3.60;;;25.40;56.20;;;28.31;40.13;101622.06;5114116;28;20188;-63
2022/08/01 08:47:15;;;;;;;8.53;3.70;;;25.20;56.90;;;28.02;40.21;101628.00;5114324;28;20188;-63
2022/08/01 08:49:49;;;;;;;10.17;3.33;;;24.90;56.90;;;28.25;40.68;101637.47;5114559;28;20242;-65
2022/08/01 08:52:20;;;;;;;6.90;3.13;;;24.80;57.60;;;29.24;38.92;101632.25;5114033;28;20579;-65
2022/08/01 08:54:51;;;;;;;7.37;3.10;;;24.90;58.10;;;30.50;36.89;101645.13;5114419;28;20206;-67
2022/08/01 08:57:20;;;;;;;9.00;5.53;;;25.20;56.60;;;31.67;33.88;101640.06;5101475;28;20311;-64
2022/08/01 08:59:51;;;;;;;9.50;4.83;;;25.80;55.00;;;32.48;32.44;101638.84;5093894;28;20274;-64
2022/08/01 09:02:19;;;;;;;9.33;3.80;;;26.50;52.80;;;32.51;32.86;101641.03;5092734;28;20265;-63
2022/08/01 09:04:49;;;;;;;6.90;3.33;;;27.00;51.70;;;32.42;32.22;101642.78;5093669;28;20188;-63
2022/08/01 09:07:16;;;;;;;5.60;3.20;;;27.30;50.50;;;32.50;32.66;101640.22;5093544;28;20242;-63
2022/08/01 09:09:48;;;;;;;7.43;2.73;;;27.50;50.70;;;32.64;31.10;101641.03;5093564;28;20679;-64
2022/08/01 09:12:18;;;;;;;9.40;3.37;;;27.60;48.10;;;32.68;31.43;101639.38;5093161;28;20665;-64
2022/08/01 09:14:49;;;;;;;9.57;3.63;;;27.70;48.30;;;33.10;31.26;101635.59;5094777;28;20545;-64
2022/08/01 09:17:18;;;;;;;5.63;2.60;;;27.90;48.80;;;33.57;30.52;101639.03;5092843;28;20194;-64
2022/08/01 09:19:47;;;;;;;6.67;3.10;;;28.10;47.60;;;33.54;30.18;101642.38;5093616;28;20189;-63
2022/08/01 09:22:18;;;;;;;7.93;3.40;;;28.40;47.10;;;33.34;30.32;101649.84;5092941;28;20607;-64
2022/08/01 09:24:59;;;;;;;5.93;3.00;;;28.50;46.40;;;33.24;30.46;101647.31;5093459;28;20193;-63
2022/08/01 09:27:27;;;;;;;6.37;2.63;;;28.60;46.00;;;33.46;29.90;101651.22;5093623;28;20184;-65
2022/08/01 09:30:08;;;;;;;7.00;3.30;;;28.60;45.30;;;33.24;29.72;101649.22;5094144;28;20338;-63
2022/08/01 09:32:54;;;;;;;7.73;3.00;;;28.60;44.70;;;32.96;30.90;101662.03;5092798;28;20204;-63
2022/08/01 09:35:27;;;;;;;7.67;3.50;;;28.60;45.10;;;32.80;30.70;101666.16;5093347;28;20193;-64
2022/08/01 09:38:18;;;;;;;6.17;3.60;;;28.50;44.60;;;32.50;30.25;101667.47;5093018;28;20657;-65
2022/08/01 09:40:54;;;;;;;7.07;4.07;;;28.30;44.50;;;33.16;29.85;101671.78;5092360;28;20219;-64
2022/08/01 09:43:27;;;;;;;6.73;3.57;;;28.30;44.70;;;34.10;28.73;101670.06;5093202;28;20192;-63
2022/08/01 09:45:55;;;;;;;8.10;3.87;;;28.50;44.80;;;35.02;27.41;101672.13;5098747;28;20192;-63
2022/08/01 09:48:27;;;;;;;7.70;5.20;;;28.80;43.70;;;35.13;27.19;101674.31;5113303;28;20705;-64
2022/08/01 09:50:58;;;;;;;6.60;3.27;;;29.10;43.40;;;35.52;26.87;101676.22;5113351;28;20183;-64
2022/08/01 09:53:46;;;;;;;10.20;4.40;;;29.50;43.10;;;35.98;25.46;101679.22;5113440;28;20656;-66
2022/08/01 09:56:21;;;;;;;5.25;3.78;;;29.70;39.20;;;36.50;24.57;101690.19;5113275;28;20179;-64
2022/08/01 09:58:51;;;;;;;7.53;4.10;;;30.00;39.40;;;37.23;23.17;101681.56;5113414;28;20188;-65
2022/08/01 10:01:26;;;;;;;9.93;3.47;;;30.30;38.10;;;37.69;23.54;101674.38;5112804;28;20674;-65
2022/08/01 10:04:10;;;;;;;6.38;3.78;;;30.70;38.70;;;38.07;23.22;101685.25;5111469;28;20285;-65
2022/08/01 10:06:39;;;;;;;9.07;3.60;;;31.10;38.30;;;38.22;23.10;101679.97;5112092;28;20206;-65
2022/08/01 10:09:13;;;;;;;7.13;3.95;;;31.40;38.70;;;38.54;22.92;101683.88;5116157;28;20204;-65
2022/08/01 10:11:42;;;;;;;7.95;3.28;;;31.70;37.10;;;38.37;21.64;101678.56;5116731;28;20207;-63
2022/08/01 10:14:14;;;;;;;5.15;3.33;;;31.80;34.50;;;38.12;22.11;101676.81;5117822;28;20206;-65
2022/08/01 10:16:47;;;;;;;4.50;3.70;;;31.90;34.40;;;38.23;22.27;101681.56;5117471;28;20194;-64
2022/08/01 10:19:26;;;;;;;4.70;2.97;;;32.00;34.50;;;38.97;21.82;101692.47;5115926;28;20180;-64
2022/08/01 10:21:57;;;;;;;6.85;3.80;;;32.20;35.90;;;39.41;21.07;101681.72;5116652;28;20211;-64
2022/08/01 10:24:30;;;;;;;7.22;4.57;;;32.30;33.90;;;39.56;20.86;101676.28;5117172;28;20545;-66
2022/08/01 10:27:08;;;;;;;7.20;5.45;;;32.60;33.70;;;39.81;20.56;101679.84;5115536;28;20194;-65
2022/08/01 10:29:47;;;;;;;9.35;6.47;;;32.70;32.80;;;39.48;20.19;101682.75;5116919;28;20260;-64